sensor_id;sensor_type;location;lat;lon;timestamp;pressure;altitude;pressure_sealevel;temperature
15062;BMP180;7630;50.306;8.566;2023-08-30T00:00:42;97228.00;;;16.40
15062;BMP180;7630;50.306;8.566;2023-08-30T00:04:43;97229.00;;;16.30
15062;BMP180;7630;50.306;8.566;2023-08-30T00:08:44;97227.00;;;16.40
15062;BMP180;7630;50.306;8.566;2023-08-30T00:12:45;97228.00;;;16.40
15062;BMP180;7630;50.306;8.566;2023-08-30T00:16:46;97229.00;;;16.30
15062;BMP180;7630;50.306;8.566;2023-08-30T00:20:48;97227.00;;;16.30
15062;BMP180;7630;50.306;8.566;2023-08-30T00:24:49;97228.00;;;16.60
15062;BMP180;7630;50.306;8.566;2023-08-30T00:28:50;97228.00;;;16.00
15062;BMP180;7630;50.306;8.566;2023-08-30T00:32:51;97219.00;;;16.40
15062;BMP180;7630;50.306;8.566;2023-08-30T00:36:52;97216.00;;;16.60
15062;BMP180;7630;50.306;8.566;2023-08-30T00:40:54;97221.00;;;16.70
15062;BMP180;7630;50.306;8.566;2023-08-30T00:44:55;97222.00;;;16.60
15062;BMP180;7630;50.306;8.566;2023-08-30T00:48:56;97216.00;;;16.50
15062;BMP180;7630;50.306;8.566;2023-08-30T00:52:58;97225.00;;;16.70
15062;BMP180;7630;50.306;8.566;2023-08-30T00:57:00;97214.00;;;16.60
15062;BMP180;7630;50.306;8.566;2023-08-30T01:01:02;97202.00;;;16.70
15062;BMP180;7630;50.306;8.566;2023-08-30T01:05:05;97203.00;;;16.60
15062;BMP180;7630;50.306;8.566;2023-08-30T01:09:06;97205.00;;;16.80
15062;BMP180;7630;50.306;8.566;2023-08-30T01:13:09;97191.00;;;16.10
15062;BMP180;7630;50.306;8.566;2023-08-30T01:17:13;97188.00;;;16.60
15062;BMP180;7630;50.306;8.566;2023-08-30T01:29:54;97185.00;;;16.30
15062;BMP180;7630;50.306;8.566;2023-08-30T01:33:57;97178.00;;;16.30
15062;BMP180;7630;50.306;8.566;2023-08-30T01:37:59;97181.00;;;16.40
15062;BMP180;7630;50.306;8.566;2023-08-30T01:42:01;97174.00;;;16.60
15062;BMP180;7630;50.306;8.566;2023-08-30T01:46:04;97174.00;;;16.50
15062;BMP180;7630;50.306;8.566;2023-08-30T01:50:07;97171.00;;;16.50
15062;BMP180;7630;50.306;8.566;2023-08-30T01:54:09;97169.00;;;16.50
15062;BMP180;7630;50.306;8.566;2023-08-30T01:58:11;97232.00;;;16.70
15062;BMP180;7630;50.306;8.566;2023-08-30T02:02:13;97175.00;;;16.60
15062;BMP180;7630;50.306;8.566;2023-08-30T02:06:24;97170.00;;;16.80
15062;BMP180;7630;50.306;8.566;2023-08-30T02:10:28;97169.00;;;16.70
15062;BMP180;7630;50.306;8.566;2023-08-30T02:14:30;97159.00;;;17.10
15062;BMP180;7630;50.306;8.566;2023-08-30T02:18:33;97156.00;;;16.90
15062;BMP180;7630;50.306;8.566;2023-08-30T02:22:35;97160.00;;;16.80
15062;BMP180;7630;50.306;8.566;2023-08-30T02:26:36;97159.00;;;16.90
15062;BMP180;7630;50.306;8.566;2023-08-30T02:30:38;97167.00;;;16.90
15062;BMP180;7630;50.306;8.566;2023-08-30T02:34:39;97162.00;;;16.90
15062;BMP180;7630;50.306;8.566;2023-08-30T02:38:40;97163.00;;;16.80
15062;BMP180;7630;50.306;8.566;2023-08-30T02:42:41;97158.00;;;17.00
15062;BMP180;7630;50.306;8.566;2023-08-30T02:46:42;97151.00;;;17.10
15062;BMP180;7630;50.306;8.566;2023-08-30T02:50:43;97149.00;;;17.20
15062;BMP180;7630;50.306;8.566;2023-08-30T02:54:45;97149.00;;;16.80
15062;BMP180;7630;50.306;8.566;2023-08-30T02:58:46;97154.00;;;16.90
15062;BMP180;7630;50.306;8.566;2023-08-30T03:02:47;97160.00;;;16.80
15062;BMP180;7630;50.306;8.566;2023-08-30T03:06:49;97143.00;;;16.90
15062;BMP180;7630;50.306;8.566;2023-08-30T03:10:51;97145.00;;;17.00
15062;BMP180;7630;50.306;8.566;2023-08-30T03:14:52;97146.00;;;17.00
15062;BMP180;7630;50.306;8.566;2023-08-30T03:18:53;97147.00;;;17.30
15062;BMP180;7630;50.306;8.566;2023-08-30T03:22:57;97152.00;;;16.90
15062;BMP180;7630;50.306;8.566;2023-08-30T03:27:00;97144.00;;;17.10
15062;BMP180;7630;50.306;8.566;2023-08-30T03:31:01;97145.00;;;17.20
15062;BMP180;7630;50.306;8.566;2023-08-30T03:35:03;97140.00;;;16.60
15062;BMP180;7630;50.306;8.566;2023-08-30T03:39:04;97142.00;;;16.00
15062;BMP180;7630;50.306;8.566;2023-08-30T03:43:05;97143.00;;;16.60
15062;BMP180;7630;50.306;8.566;2023-08-30T03:47:07;97150.00;;;17.00
15062;BMP180;7630;50.306;8.566;2023-08-30T03:51:08;97141.00;;;17.10
15062;BMP180;7630;50.306;8.566;2023-08-30T03:55:09;97142.00;;;17.20
15062;BMP180;7630;50.306;8.566;2023-08-30T03:59:12;97137.00;;;17.20
15062;BMP180;7630;50.306;8.566;2023-08-30T04:03:14;97133.00;;;17.30
15062;BMP180;7630;50.306;8.566;2023-08-30T04:07:16;97141.00;;;17.30
15062;BMP180;7630;50.306;8.566;2023-08-30T04:11:17;97137.00;;;17.30
15062;BMP180;7630;50.306;8.566;2023-08-30T04:15:18;97135.00;;;17.00
15062;BMP180;7630;50.306;8.566;2023-08-30T04:19:19;97135.00;;;17.40
15062;BMP180;7630;50.306;8.566;2023-08-30T04:23:20;97137.00;;;17.20
15062;BMP180;7630;50.306;8.566;2023-08-30T04:27:21;97124.00;;;17.30
15062;BMP180;7630;50.306;8.566;2023-08-30T04:31:23;97126.00;;;17.30
15062;BMP180;7630;50.306;8.566;2023-08-30T04:35:24;97132.00;;;17.40
15062;BMP180;7630;50.306;8.566;2023-08-30T04:39:25;97127.00;;;17.40
15062;BMP180;7630;50.306;8.566;2023-08-30T04:43:26;97126.00;;;17.20
15062;BMP180;7630;50.306;8.566;2023-08-30T04:47:28;97120.00;;;17.10
15062;BMP180;7630;50.306;8.566;2023-08-30T04:51:30;97123.00;;;17.10
15062;BMP180;7630;50.306;8.566;2023-08-30T04:55:31;97128.00;;;17.10
15062;BMP180;7630;50.306;8.566;2023-08-30T04:59:32;97124.00;;;16.90
15062;BMP180;7630;50.306;8.566;2023-08-30T05:03:34;97124.00;;;16.90
15062;BMP180;7630;50.306;8.566;2023-08-30T05:07:35;97112.00;;;16.80
15062;BMP180;7630;50.306;8.566;2023-08-30T05:11:36;97116.00;;;17.20
15062;BMP180;7630;50.306;8.566;2023-08-30T05:15:37;97124.00;;;17.00
15062;BMP180;7630;50.306;8.566;2023-08-30T05:19:39;97126.00;;;16.30
15062;BMP180;7630;50.306;8.566;2023-08-30T05:23:40;97085.00;;;16.70
15062;BMP180;7630;50.306;8.566;2023-08-30T05:27:43;97123.00;;;17.20
15062;BMP180;7630;50.306;8.566;2023-08-30T05:31:44;97116.00;;;17.60
15062;BMP180;7630;50.306;8.566;2023-08-30T05:35:46;97120.00;;;17.70
15062;BMP180;7630;50.306;8.566;2023-08-30T05:39:47;97127.00;;;17.90
15062;BMP180;7630;50.306;8.566;2023-08-30T05:43:48;97127.00;;;17.80
15062;BMP180;7630;50.306;8.566;2023-08-30T05:47:49;97134.00;;;17.70
15062;BMP180;7630;50.306;8.566;2023-08-30T05:51:50;97126.00;;;17.60
15062;BMP180;7630;50.306;8.566;2023-08-30T05:55:51;97122.00;;;18.00
15062;BMP180;7630;50.306;8.566;2023-08-30T05:59:52;97122.00;;;17.30
15062;BMP180;7630;50.306;8.566;2023-08-30T06:03:53;97129.00;;;17.50
15062;BMP180;7630;50.306;8.566;2023-08-30T06:07:55;97131.00;;;17.90
15062;BMP180;7630;50.306;8.566;2023-08-30T06:11:56;97123.00;;;18.30
15062;BMP180;7630;50.306;8.566;2023-08-30T06:15:57;97128.00;;;18.50
15062;BMP180;7630;50.306;8.566;2023-08-30T06:19:59;97113.00;;;18.50
15062;BMP180;7630;50.306;8.566;2023-08-30T06:24:00;97101.00;;;18.90
15062;BMP180;7630;50.306;8.566;2023-08-30T06:28:02;97107.00;;;19.10
15062;BMP180;7630;50.306;8.566;2023-08-30T06:32:05;97108.00;;;18.30
15062;BMP180;7630;50.306;8.566;2023-08-30T06:36:06;97105.00;;;18.90
15062;BMP180;7630;50.306;8.566;2023-08-30T06:40:08;97106.00;;;19.20
15062;BMP180;7630;50.306;8.566;2023-08-30T06:44:09;97113.00;;;19.70
15062;BMP180;7630;50.306;8.566;2023-08-30T06:48:11;97103.00;;;20.30
15062;BMP180;7630;50.306;8.566;2023-08-30T06:52:13;97098.00;;;21.10
15062;BMP180;7630;50.306;8.566;2023-08-30T06:56:14;97104.00;;;20.60
15062;BMP180;7630;50.306;8.566;2023-08-30T07:00:16;97098.00;;;21.10
15062;BMP180;7630;50.306;8.566;2023-08-30T07:04:18;97100.00;;;21.80
15062;BMP180;7630;50.306;8.566;2023-08-30T07:08:19;97125.00;;;22.50
15062;BMP180;7630;50.306;8.566;2023-08-30T07:12:20;97108.00;;;22.70
15062;BMP180;7630;50.306;8.566;2023-08-30T07:16:22;97098.00;;;22.30
15062;BMP180;7630;50.306;8.566;2023-08-30T07:20:23;96960.00;;;21.80
15062;BMP180;7630;50.306;8.566;2023-08-30T07:24:24;97096.00;;;22.50
15062;BMP180;7630;50.306;8.566;2023-08-30T07:28:25;97097.00;;;22.50
15062;BMP180;7630;50.306;8.566;2023-08-30T07:32:26;97101.00;;;22.10
15062;BMP180;7630;50.306;8.566;2023-08-30T07:36:29;97100.00;;;22.30
15062;BMP180;7630;50.306;8.566;2023-08-30T07:40:33;97102.00;;;22.40
15062;BMP180;7630;50.306;8.566;2023-08-30T07:44:34;97101.00;;;23.10
15062;BMP180;7630;50.306;8.566;2023-08-30T07:48:35;97092.00;;;23.20
15062;BMP180;7630;50.306;8.566;2023-08-30T07:56:52;97099.00;;;23.70
15062;BMP180;7630;50.306;8.566;2023-08-30T08:00:53;97101.00;;;24.00
15062;BMP180;7630;50.306;8.566;2023-08-30T08:04:54;97102.00;;;22.80
15062;BMP180;7630;50.306;8.566;2023-08-30T08:08:55;97099.00;;;22.30
15062;BMP180;7630;50.306;8.566;2023-08-30T08:12:57;97107.00;;;22.40
15062;BMP180;7630;50.306;8.566;2023-08-30T08:17:00;97101.00;;;22.80
15062;BMP180;7630;50.306;8.566;2023-08-30T08:21:01;97103.00;;;22.50
15062;BMP180;7630;50.306;8.566;2023-08-30T08:25:02;97112.00;;;22.30
15062;BMP180;7630;50.306;8.566;2023-08-30T08:29:03;97110.00;;;21.80
15062;BMP180;7630;50.306;8.566;2023-08-30T08:33:05;97114.00;;;22.20
15062;BMP180;7630;50.306;8.566;2023-08-30T08:37:06;97108.00;;;21.30
15062;BMP180;7630;50.306;8.566;2023-08-30T08:41:11;97114.00;;;21.70
15062;BMP180;7630;50.306;8.566;2023-08-30T08:45:13;97105.00;;;22.40
15062;BMP180;7630;50.306;8.566;2023-08-30T08:49:15;97110.00;;;21.70
15062;BMP180;7630;50.306;8.566;2023-08-30T08:53:17;97093.00;;;21.60
15062;BMP180;7630;50.306;8.566;2023-08-30T08:57:19;97099.00;;;22.60
15062;BMP180;7630;50.306;8.566;2023-08-30T09:01:20;97105.00;;;21.50
15062;BMP180;7630;50.306;8.566;2023-08-30T09:05:23;97107.00;;;21.70
15062;BMP180;7630;50.306;8.566;2023-08-30T09:09:25;97101.00;;;22.20
15062;BMP180;7630;50.306;8.566;2023-08-30T09:13:26;97092.00;;;22.40
15062;BMP180;7630;50.306;8.566;2023-08-30T09:17:38;97084.00;;;21.50
15062;BMP180;7630;50.306;8.566;2023-08-30T09:21:50;97082.00;;;21.10
15062;BMP180;7630;50.306;8.566;2023-08-30T09:25:45;97087.00;;;22.20
15062;BMP180;7630;50.306;8.566;2023-08-30T09:29:47;97078.00;;;22.40
15062;BMP180;7630;50.306;8.566;2023-08-30T09:33:48;97066.00;;;21.70
15062;BMP180;7630;50.306;8.566;2023-08-30T09:37:49;97069.00;;;22.00
15062;BMP180;7630;50.306;8.566;2023-08-30T09:41:51;97063.00;;;21.60
15062;BMP180;7630;50.306;8.566;2023-08-30T09:45:54;97066.00;;;20.90
15062;BMP180;7630;50.306;8.566;2023-08-30T09:49:55;97064.00;;;21.00
15062;BMP180;7630;50.306;8.566;2023-08-30T09:53:59;97062.00;;;21.10
15062;BMP180;7630;50.306;8.566;2023-08-30T09:58:04;97058.00;;;21.00
15062;BMP180;7630;50.306;8.566;2023-08-30T10:02:05;97058.00;;;22.10
15062;BMP180;7630;50.306;8.566;2023-08-30T10:06:08;97056.00;;;21.90
15062;BMP180;7630;50.306;8.566;2023-08-30T10:10:10;97045.00;;;22.70
15062;BMP180;7630;50.306;8.566;2023-08-30T10:14:12;97044.00;;;21.60
15062;BMP180;7630;50.306;8.566;2023-08-30T10:18:15;97044.00;;;22.20
15062;BMP180;7630;50.306;8.566;2023-08-30T10:22:19;97034.00;;;22.30
15062;BMP180;7630;50.306;8.566;2023-08-30T10:26:23;97032.00;;;22.90
15062;BMP180;7630;50.306;8.566;2023-08-30T10:30:25;97042.00;;;23.10
15062;BMP180;7630;50.306;8.566;2023-08-30T10:34:31;97033.00;;;22.80
15062;BMP180;7630;50.306;8.566;2023-08-30T10:38:32;97033.00;;;23.30
15062;BMP180;7630;50.306;8.566;2023-08-30T10:42:34;97035.00;;;23.00
15062;BMP180;7630;50.306;8.566;2023-08-30T10:46:35;97038.00;;;22.70
15062;BMP180;7630;50.306;8.566;2023-08-30T10:50:37;97042.00;;;23.10
15062;BMP180;7630;50.306;8.566;2023-08-30T10:54:45;97032.00;;;22.40
15062;BMP180;7630;50.306;8.566;2023-08-30T10:58:46;97023.00;;;22.80
15062;BMP180;7630;50.306;8.566;2023-08-30T11:02:51;97042.00;;;23.50
15062;BMP180;7630;50.306;8.566;2023-08-30T11:07:12;97019.00;;;23.80
15062;BMP180;7630;50.306;8.566;2023-08-30T11:11:13;97010.00;;;23.30
15062;BMP180;7630;50.306;8.566;2023-08-30T11:15:16;97004.00;;;24.20
15062;BMP180;7630;50.306;8.566;2023-08-30T11:19:17;97009.00;;;24.50
15062;BMP180;7630;50.306;8.566;2023-08-30T11:23:18;97001.00;;;23.40
15062;BMP180;7630;50.306;8.566;2023-08-30T11:27:19;97002.00;;;23.70
15062;BMP180;7630;50.306;8.566;2023-08-30T11:31:25;97003.00;;;24.10
15062;BMP180;7630;50.306;8.566;2023-08-30T11:35:30;96986.00;;;24.40
15062;BMP180;7630;50.306;8.566;2023-08-30T11:39:31;96998.00;;;25.50
15062;BMP180;7630;50.306;8.566;2023-08-30T11:43:32;96990.00;;;24.90
15062;BMP180;7630;50.306;8.566;2023-08-30T11:47:33;96988.00;;;24.10
15062;BMP180;7630;50.306;8.566;2023-08-30T11:51:35;96982.00;;;22.50
15062;BMP180;7630;50.306;8.566;2023-08-30T11:55:37;96997.00;;;22.50
15062;BMP180;7630;50.306;8.566;2023-08-30T11:59:38;96989.00;;;22.90
15062;BMP180;7630;50.306;8.566;2023-08-30T12:03:42;96986.00;;;23.00
15062;BMP180;7630;50.306;8.566;2023-08-30T12:07:45;96986.00;;;22.50
15062;BMP180;7630;50.306;8.566;2023-08-30T12:11:50;96989.00;;;22.40
15062;BMP180;7630;50.306;8.566;2023-08-30T12:15:58;96991.00;;;22.60
15062;BMP180;7630;50.306;8.566;2023-08-30T12:20:00;96999.00;;;22.10
15062;BMP180;7630;50.306;8.566;2023-08-30T12:24:01;96990.00;;;22.30
15062;BMP180;7630;50.306;8.566;2023-08-30T12:28:04;96989.00;;;22.20
15062;BMP180;7630;50.306;8.566;2023-08-30T12:32:07;96990.00;;;23.20
15062;BMP180;7630;50.306;8.566;2023-08-30T12:36:08;96982.00;;;23.50
15062;BMP180;7630;50.306;8.566;2023-08-30T12:40:10;96974.00;;;23.00
15062;BMP180;7630;50.306;8.566;2023-08-30T12:44:11;96981.00;;;23.20
15062;BMP180;7630;50.306;8.566;2023-08-30T12:48:14;96975.00;;;24.00
15062;BMP180;7630;50.306;8.566;2023-08-30T12:52:16;96975.00;;;23.20
15062;BMP180;7630;50.306;8.566;2023-08-30T12:56:18;96976.00;;;25.80
15062;BMP180;7630;50.306;8.566;2023-08-30T13:00:19;96969.00;;;25.30
15062;BMP180;7630;50.306;8.566;2023-08-30T13:04:21;96959.00;;;24.90
15062;BMP180;7630;50.306;8.566;2023-08-30T13:08:22;96956.00;;;24.20
15062;BMP180;7630;50.306;8.566;2023-08-30T13:12:23;96953.00;;;25.30
15062;BMP180;7630;50.306;8.566;2023-08-30T13:16:25;96953.00;;;24.70
15062;BMP180;7630;50.306;8.566;2023-08-30T13:20:26;96947.00;;;24.10
15062;BMP180;7630;50.306;8.566;2023-08-30T13:24:27;96952.00;;;23.60
15062;BMP180;7630;50.306;8.566;2023-08-30T13:28:29;96951.00;;;23.40
15062;BMP180;7630;50.306;8.566;2023-08-30T13:32:30;96964.00;;;22.00
15062;BMP180;7630;50.306;8.566;2023-08-30T13:36:31;96931.00;;;22.40
15062;BMP180;7630;50.306;8.566;2023-08-30T13:40:33;96952.00;;;22.00
15062;BMP180;7630;50.306;8.566;2023-08-30T13:44:35;96962.00;;;21.60
15062;BMP180;7630;50.306;8.566;2023-08-30T13:48:39;96958.00;;;20.10
15062;BMP180;7630;50.306;8.566;2023-08-30T13:52:40;96977.00;;;19.40
15062;BMP180;7630;50.306;8.566;2023-08-30T13:56:41;96981.00;;;19.70
15062;BMP180;7630;50.306;8.566;2023-08-30T14:00:44;96979.00;;;19.60
15062;BMP180;7630;50.306;8.566;2023-08-30T14:04:45;96972.00;;;19.90
15062;BMP180;7630;50.306;8.566;2023-08-30T14:08:46;96971.00;;;20.60
15062;BMP180;7630;50.306;8.566;2023-08-30T14:12:48;96970.00;;;21.00
15062;BMP180;7630;50.306;8.566;2023-08-30T14:16:49;96960.00;;;21.60
15062;BMP180;7630;50.306;8.566;2023-08-30T14:20:50;96955.00;;;22.50
15062;BMP180;7630;50.306;8.566;2023-08-30T14:24:51;96957.00;;;23.10
15062;BMP180;7630;50.306;8.566;2023-08-30T14:28:54;96955.00;;;22.90
15062;BMP180;7630;50.306;8.566;2023-08-30T14:32:55;96950.00;;;22.80
15062;BMP180;7630;50.306;8.566;2023-08-30T14:36:56;96948.00;;;23.50
15062;BMP180;7630;50.306;8.566;2023-08-30T14:41:00;96947.00;;;23.30
15062;BMP180;7630;50.306;8.566;2023-08-30T14:45:01;96941.00;;;22.60
15062;BMP180;7630;50.306;8.566;2023-08-30T14:49:03;96934.00;;;23.20
15062;BMP180;7630;50.306;8.566;2023-08-30T14:53:05;96942.00;;;24.20
15062;BMP180;7630;50.306;8.566;2023-08-30T14:57:07;96932.00;;;25.40
15062;BMP180;7630;50.306;8.566;2023-08-30T15:01:09;96927.00;;;24.70
15062;BMP180;7630;50.306;8.566;2023-08-30T15:05:10;96932.00;;;24.60
15062;BMP180;7630;50.306;8.566;2023-08-30T15:09:12;96926.00;;;23.90
15062;BMP180;7630;50.306;8.566;2023-08-30T15:13:15;96931.00;;;24.30
15062;BMP180;7630;50.306;8.566;2023-08-30T15:17:16;96928.00;;;24.40
15062;BMP180;7630;50.306;8.566;2023-08-30T15:21:17;96917.00;;;24.80
15062;BMP180;7630;50.306;8.566;2023-08-30T15:25:19;96923.00;;;25.70
15062;BMP180;7630;50.306;8.566;2023-08-30T15:29:20;96912.00;;;25.50
15062;BMP180;7630;50.306;8.566;2023-08-30T15:33:21;96916.00;;;25.10
15062;BMP180;7630;50.306;8.566;2023-08-30T15:37:24;96909.00;;;25.60
15062;BMP180;7630;50.306;8.566;2023-08-30T15:41:25;96918.00;;;24.50
15062;BMP180;7630;50.306;8.566;2023-08-30T15:45:27;96919.00;;;24.80
15062;BMP180;7630;50.306;8.566;2023-08-30T15:49:28;96911.00;;;24.20
15062;BMP180;7630;50.306;8.566;2023-08-30T15:53:29;96933.00;;;23.80
15062;BMP180;7630;50.306;8.566;2023-08-30T15:57:30;96910.00;;;23.50
15062;BMP180;7630;50.306;8.566;2023-08-30T16:01:31;96916.00;;;22.90
15062;BMP180;7630;50.306;8.566;2023-08-30T16:05:32;96919.00;;;22.10
15062;BMP180;7630;50.306;8.566;2023-08-30T16:09:35;96907.00;;;22.30
15062;BMP180;7630;50.306;8.566;2023-08-30T16:13:36;96912.00;;;22.10
15062;BMP180;7630;50.306;8.566;2023-08-30T16:17:37;96898.00;;;21.60
15062;BMP180;7630;50.306;8.566;2023-08-30T16:21:38;96911.00;;;21.50
15062;BMP180;7630;50.306;8.566;2023-08-30T16:25:39;96910.00;;;21.30
15062;BMP180;7630;50.306;8.566;2023-08-30T16:29:40;96922.00;;;21.30
15062;BMP180;7630;50.306;8.566;2023-08-30T16:33:42;96954.00;;;19.10
15062;BMP180;7630;50.306;8.566;2023-08-30T16:37:43;96963.00;;;18.20
15062;BMP180;7630;50.306;8.566;2023-08-30T16:41:44;96970.00;;;16.70
15062;BMP180;7630;50.306;8.566;2023-08-30T16:45:46;96984.00;;;16.90
15062;BMP180;7630;50.306;8.566;2023-08-30T16:49:47;96969.00;;;17.50
15062;BMP180;7630;50.306;8.566;2023-08-30T16:53:48;96979.00;;;17.20
15062;BMP180;7630;50.306;8.566;2023-08-30T16:57:49;96990.00;;;17.90
15062;BMP180;7630;50.306;8.566;2023-08-30T17:01:51;96989.00;;;17.50
15062;BMP180;7630;50.306;8.566;2023-08-30T17:05:52;96988.00;;;17.40
15062;BMP180;7630;50.306;8.566;2023-08-30T17:09:53;96979.00;;;17.60
15062;BMP180;7630;50.306;8.566;2023-08-30T17:13:54;96979.00;;;17.40
15062;BMP180;7630;50.306;8.566;2023-08-30T17:17:55;96967.00;;;18.20
15062;BMP180;7630;50.306;8.566;2023-08-30T17:21:56;96973.00;;;16.90
15062;BMP180;7630;50.306;8.566;2023-08-30T17:25:57;96974.00;;;17.50
15062;BMP180;7630;50.306;8.566;2023-08-30T17:30:00;96977.00;;;16.60
15062;BMP180;7630;50.306;8.566;2023-08-30T17:34:01;96972.00;;;16.50
15062;BMP180;7630;50.306;8.566;2023-08-30T17:38:02;96968.00;;;17.20
15062;BMP180;7630;50.306;8.566;2023-08-30T17:42:04;96976.00;;;18.10
15062;BMP180;7630;50.306;8.566;2023-08-30T17:46:07;96970.00;;;18.00
15062;BMP180;7630;50.306;8.566;2023-08-30T17:50:08;96977.00;;;18.30
15062;BMP180;7630;50.306;8.566;2023-08-30T17:54:10;96980.00;;;17.50
15062;BMP180;7630;50.306;8.566;2023-08-30T17:58:11;96989.00;;;18.00
15062;BMP180;7630;50.306;8.566;2023-08-30T18:02:12;97010.00;;;16.90
15062;BMP180;7630;50.306;8.566;2023-08-30T18:06:13;97020.00;;;15.70
15062;BMP180;7630;50.306;8.566;2023-08-30T18:10:15;97024.00;;;14.30
15062;BMP180;7630;50.306;8.566;2023-08-30T18:14:16;97051.00;;;15.00
15062;BMP180;7630;50.306;8.566;2023-08-30T18:18:17;97060.00;;;15.00
15062;BMP180;7630;50.306;8.566;2023-08-30T18:22:18;97055.00;;;15.10
15062;BMP180;7630;50.306;8.566;2023-08-30T18:26:19;97050.00;;;15.40
15062;BMP180;7630;50.306;8.566;2023-08-30T18:30:21;97055.00;;;14.90
15062;BMP180;7630;50.306;8.566;2023-08-30T18:34:22;97066.00;;;15.00
15062;BMP180;7630;50.306;8.566;2023-08-30T18:38:23;97066.00;;;15.90
15062;BMP180;7630;50.306;8.566;2023-08-30T18:42:25;97066.00;;;15.70
15062;BMP180;7630;50.306;8.566;2023-08-30T18:46:28;97076.00;;;15.60
15062;BMP180;7630;50.306;8.566;2023-08-30T18:50:29;97076.00;;;15.20
15062;BMP180;7630;50.306;8.566;2023-08-30T18:54:31;97079.00;;;15.60
15062;BMP180;7630;50.306;8.566;2023-08-30T18:58:32;97078.00;;;14.90
15062;BMP180;7630;50.306;8.566;2023-08-30T19:02:33;97077.00;;;15.30
15062;BMP180;7630;50.306;8.566;2023-08-30T19:06:34;97091.00;;;15.20
15062;BMP180;7630;50.306;8.566;2023-08-30T19:10:36;97084.00;;;15.20
15062;BMP180;7630;50.306;8.566;2023-08-30T19:14:37;97077.00;;;14.60
15062;BMP180;7630;50.306;8.566;2023-08-30T19:18:38;97081.00;;;15.00
15062;BMP180;7630;50.306;8.566;2023-08-30T19:22:40;96814.00;;;16.00
15062;BMP180;7630;50.306;8.566;2023-08-30T19:26:41;97053.00;;;16.50
15062;BMP180;7630;50.306;8.566;2023-08-30T19:30:43;97057.00;;;16.40
15062;BMP180;7630;50.306;8.566;2023-08-30T19:34:45;97052.00;;;16.60
15062;BMP180;7630;50.306;8.566;2023-08-30T19:38:50;97056.00;;;16.90
15062;BMP180;7630;50.306;8.566;2023-08-30T19:42:51;97067.00;;;16.80
15062;BMP180;7630;50.306;8.566;2023-08-30T19:46:54;97064.00;;;16.80
15062;BMP180;7630;50.306;8.566;2023-08-30T19:50:57;97057.00;;;16.40
15062;BMP180;7630;50.306;8.566;2023-08-30T19:54:59;97069.00;;;14.70
15062;BMP180;7630;50.306;8.566;2023-08-30T19:59:00;97067.00;;;15.80
15062;BMP180;7630;50.306;8.566;2023-08-30T20:03:02;97077.00;;;16.30
15062;BMP180;7630;50.306;8.566;2023-08-30T20:07:04;97097.00;;;16.30
15062;BMP180;7630;50.306;8.566;2023-08-30T20:11:06;97084.00;;;16.50
15062;BMP180;7630;50.306;8.566;2023-08-30T20:15:08;97098.00;;;16.40
15062;BMP180;7630;50.306;8.566;2023-08-30T20:19:10;97113.00;;;16.50
15062;BMP180;7630;50.306;8.566;2023-08-30T20:23:13;97107.00;;;16.20
15062;BMP180;7630;50.306;8.566;2023-08-30T20:27:14;97102.00;;;16.60
15062;BMP180;7630;50.306;8.566;2023-08-30T20:31:16;97106.00;;;16.50
15062;BMP180;7630;50.306;8.566;2023-08-30T20:35:17;97118.00;;;16.70
15062;BMP180;7630;50.306;8.566;2023-08-30T20:39:18;97125.00;;;16.70
15062;BMP180;7630;50.306;8.566;2023-08-30T20:43:19;97128.00;;;16.50
15062;BMP180;7630;50.306;8.566;2023-08-30T20:47:20;97134.00;;;16.40
15062;BMP180;7630;50.306;8.566;2023-08-30T20:51:21;97138.00;;;16.90
15062;BMP180;7630;50.306;8.566;2023-08-30T20:55:23;97138.00;;;17.10
15062;BMP180;7630;50.306;8.566;2023-08-30T20:59:25;97140.00;;;16.90
15062;BMP180;7630;50.306;8.566;2023-08-30T21:03:27;97146.00;;;16.80
15062;BMP180;7630;50.306;8.566;2023-08-30T21:07:28;97139.00;;;16.70
15062;BMP180;7630;50.306;8.566;2023-08-30T21:11:30;97140.00;;;17.30
15062;BMP180;7630;50.306;8.566;2023-08-30T21:15:31;97146.00;;;16.70
15062;BMP180;7630;50.306;8.566;2023-08-30T21:19:32;97152.00;;;16.90
15062;BMP180;7630;50.306;8.566;2023-08-30T21:23:33;97154.00;;;16.80
15062;BMP180;7630;50.306;8.566;2023-08-30T21:27:34;97154.00;;;16.90
15062;BMP180;7630;50.306;8.566;2023-08-30T21:31:36;97156.00;;;17.00
15062;BMP180;7630;50.306;8.566;2023-08-30T21:35:38;97160.00;;;17.20
15062;BMP180;7630;50.306;8.566;2023-08-30T21:39:39;97150.00;;;17.30
15062;BMP180;7630;50.306;8.566;2023-08-30T21:43:42;97146.00;;;17.50
15062;BMP180;7630;50.306;8.566;2023-08-30T21:47:43;97153.00;;;17.10
15062;BMP180;7630;50.306;8.566;2023-08-30T21:51:45;97152.00;;;16.40
15062;BMP180;7630;50.306;8.566;2023-08-30T21:55:46;97154.00;;;16.60
15062;BMP180;7630;50.306;8.566;2023-08-30T21:59:48;97154.00;;;15.70
15062;BMP180;7630;50.306;8.566;2023-08-30T22:03:49;97155.00;;;15.60
15062;BMP180;7630;50.306;8.566;2023-08-30T22:07:50;97148.00;;;15.70
15062;BMP180;7630;50.306;8.566;2023-08-30T22:11:51;97141.00;;;15.40
15062;BMP180;7630;50.306;8.566;2023-08-30T22:15:53;97139.00;;;15.40
15062;BMP180;7630;50.306;8.566;2023-08-30T22:19:54;97140.00;;;15.30
15062;BMP180;7630;50.306;8.566;2023-08-30T22:23:57;97142.00;;;15.40
15062;BMP180;7630;50.306;8.566;2023-08-30T22:27:59;97142.00;;;15.20
15062;BMP180;7630;50.306;8.566;2023-08-30T22:32:02;97140.00;;;15.40
15062;BMP180;7630;50.306;8.566;2023-08-30T22:36:04;97147.00;;;15.30
15062;BMP180;7630;50.306;8.566;2023-08-30T22:40:06;97143.00;;;15.30
15062;BMP180;7630;50.306;8.566;2023-08-30T22:44:09;97144.00;;;15.50
15062;BMP180;7630;50.306;8.566;2023-08-30T22:48:11;97151.00;;;15.20
15062;BMP180;7630;50.306;8.566;2023-08-30T22:52:12;97153.00;;;15.10
15062;BMP180;7630;50.306;8.566;2023-08-30T22:56:13;97144.00;;;15.60
15062;BMP180;7630;50.306;8.566;2023-08-30T23:00:14;97141.00;;;15.70
15062;BMP180;7630;50.306;8.566;2023-08-30T23:04:16;97150.00;;;14.90
15062;BMP180;7630;50.306;8.566;2023-08-30T23:08:17;97147.00;;;15.30
15062;BMP180;7630;50.306;8.566;2023-08-30T23:12:19;97125.00;;;14.90
15062;BMP180;7630;50.306;8.566;2023-08-30T23:16:22;97149.00;;;14.10
15062;BMP180;7630;50.306;8.566;2023-08-30T23:20:23;97141.00;;;15.00
15062;BMP180;7630;50.306;8.566;2023-08-30T23:24:25;97148.00;;;15.10
15062;BMP180;7630;50.306;8.566;2023-08-30T23:28:26;97142.00;;;14.80
15062;BMP180;7630;50.306;8.566;2023-08-30T23:32:27;97155.00;;;14.40
15062;BMP180;7630;50.306;8.566;2023-08-30T23:36:28;97155.00;;;14.60
15062;BMP180;7630;50.306;8.566;2023-08-30T23:40:30;97157.00;;;14.50
15062;BMP180;7630;50.306;8.566;2023-08-30T23:44:31;97146.00;;;14.20